sensor_id;sensor_type;location;lat;lon;timestamp;pressure;altitude;pressure_sealevel;temperature;humidity
46379;BME280;32084;42.254;22.744;2023-07-30T00:00:17;95029.34;;;18.39;82.30
46379;BME280;32084;42.254;22.744;2023-07-30T00:02:42;95034.75;;;18.46;81.83
46379;BME280;32084;42.254;22.744;2023-07-30T00:05:08;95044.31;;;18.48;81.49
46379;BME280;32084;42.254;22.744;2023-07-30T00:07:34;95031.00;;;18.47;81.56
46379;BME280;32084;42.254;22.744;2023-07-30T00:10:00;95031.84;;;18.34;81.93
46379;BME280;32084;42.254;22.744;2023-07-30T00:12:26;95036.44;;;18.40;82.32
46379;BME280;32084;42.254;22.744;2023-07-30T00:14:52;95041.22;;;18.45;81.64
46379;BME280;32084;42.254;22.744;2023-07-30T00:17:18;95034.78;;;18.32;81.68
46379;BME280;32084;42.254;22.744;2023-07-30T00:19:44;95035.44;;;18.14;82.99
46379;BME280;32084;42.254;22.744;2023-07-30T00:22:10;95034.38;;;18.22;82.68
46379;BME280;32084;42.254;22.744;2023-07-30T00:24:36;95040.25;;;18.12;82.88
46379;BME280;32084;42.254;22.744;2023-07-30T00:27:02;95030.69;;;17.97;83.47
46379;BME280;32084;42.254;22.744;2023-07-30T00:29:28;95030.22;;;18.33;82.07
46379;BME280;32084;42.254;22.744;2023-07-30T00:31:54;95028.31;;;18.40;81.36
46379;BME280;32084;42.254;22.744;2023-07-30T00:34:20;95025.66;;;18.27;82.62
46379;BME280;32084;42.254;22.744;2023-07-30T00:36:46;95030.81;;;18.35;81.51
46379;BME280;32084;42.254;22.744;2023-07-30T00:39:12;95028.38;;;18.07;83.18
46379;BME280;32084;42.254;22.744;2023-07-30T00:41:38;95031.47;;;18.17;82.33
46379;BME280;32084;42.254;22.744;2023-07-30T00:44:04;95029.63;;;18.18;82.49
46379;BME280;32084;42.254;22.744;2023-07-30T00:46:30;95028.69;;;18.44;81.08
46379;BME280;32084;42.254;22.744;2023-07-30T00:48:56;95031.84;;;18.34;81.46
46379;BME280;32084;42.254;22.744;2023-07-30T00:51:22;95026.06;;;18.24;82.32
46379;BME280;32084;42.254;22.744;2023-07-30T00:53:48;95029.41;;;18.12;82.79
46379;BME280;32084;42.254;22.744;2023-07-30T00:56:14;95026.75;;;17.99;83.23
46379;BME280;32084;42.254;22.744;2023-07-30T00:58:42;95030.91;;;17.95;83.00
46379;BME280;32084;42.254;22.744;2023-07-30T01:01:08;95026.97;;;17.91;83.28
46379;BME280;32084;42.254;22.744;2023-07-30T01:03:34;95031.09;;;17.87;83.50
46379;BME280;32084;42.254;22.744;2023-07-30T01:06:00;95029.03;;;17.89;83.32
46379;BME280;32084;42.254;22.744;2023-07-30T01:08:26;95025.91;;;17.92;83.06
46379;BME280;32084;42.254;22.744;2023-07-30T01:10:52;95031.09;;;17.87;83.53
46379;BME280;32084;42.254;22.744;2023-07-30T01:13:19;95031.50;;;17.84;83.36
46379;BME280;32084;42.254;22.744;2023-07-30T01:15:45;95029.41;;;17.66;84.21
46379;BME280;32084;42.254;22.744;2023-07-30T01:18:12;95023.41;;;17.70;84.19
46379;BME280;32084;42.254;22.744;2023-07-30T01:20:38;95028.19;;;18.02;82.18
46379;BME280;32084;42.254;22.744;2023-07-30T01:23:04;95033.97;;;18.19;81.31
46379;BME280;32084;42.254;22.744;2023-07-30T01:25:30;95032.56;;;17.96;82.00
46379;BME280;32084;42.254;22.744;2023-07-30T01:28:00;95033.38;;;17.63;84.25
46379;BME280;32084;42.254;22.744;2023-07-30T01:30:28;95042.50;;;17.49;84.99
46379;BME280;32084;42.254;22.744;2023-07-30T01:32:55;95038.56;;;17.38;85.36
46379;BME280;32084;42.254;22.744;2023-07-30T01:35:22;95043.75;;;17.33;85.69
46379;BME280;32084;42.254;22.744;2023-07-30T01:37:51;95050.22;;;17.52;85.67
46379;BME280;32084;42.254;22.744;2023-07-30T01:40:17;95052.28;;;17.56;84.81
46379;BME280;32084;42.254;22.744;2023-07-30T01:42:43;95046.69;;;17.58;84.77
46379;BME280;32084;42.254;22.744;2023-07-30T01:45:09;95040.88;;;17.61;84.86
46379;BME280;32084;42.254;22.744;2023-07-30T01:47:35;95046.47;;;17.60;85.08
46379;BME280;32084;42.254;22.744;2023-07-30T01:50:01;95047.72;;;17.44;85.51
46379;BME280;32084;42.254;22.744;2023-07-30T01:52:27;95050.22;;;17.52;84.82
46379;BME280;32084;42.254;22.744;2023-07-30T01:54:53;95046.88;;;17.50;85.18
46379;BME280;32084;42.254;22.744;2023-07-30T01:57:19;95049.16;;;17.46;84.82
46379;BME280;32084;42.254;22.744;2023-07-30T01:59:45;95050.19;;;17.25;86.22
46379;BME280;32084;42.254;22.744;2023-07-30T02:02:11;95050.59;;;17.29;86.37
46379;BME280;32084;42.254;22.744;2023-07-30T02:04:37;95045.66;;;17.59;84.65
46379;BME280;32084;42.254;22.744;2023-07-30T02:07:03;95043.16;;;17.71;83.98
46379;BME280;32084;42.254;22.744;2023-07-30T02:09:29;95050.44;;;17.70;83.72
46379;BME280;32084;42.254;22.744;2023-07-30T02:11:55;95056.03;;;17.62;84.16
46379;BME280;32084;42.254;22.744;2023-07-30T02:14:21;95053.53;;;17.54;85.12
46379;BME280;32084;42.254;22.744;2023-07-30T02:16:47;95047.91;;;17.62;84.32
46379;BME280;32084;42.254;22.744;2023-07-30T02:19:12;95051.66;;;17.54;84.65
46379;BME280;32084;42.254;22.744;2023-07-30T02:21:38;95049.41;;;17.65;83.74
46379;BME280;32084;42.254;22.744;2023-07-30T02:24:08;95050.41;;;17.50;84.78
46379;BME280;32084;42.254;22.744;2023-07-30T02:26:37;95054.78;;;17.45;85.28
46379;BME280;32084;42.254;22.744;2023-07-30T02:29:03;95051.03;;;17.32;85.43
46379;BME280;32084;42.254;22.744;2023-07-30T02:31:29;95055.19;;;17.28;85.94
46379;BME280;32084;42.254;22.744;2023-07-30T02:33:55;95051.19;;;17.04;86.03
46379;BME280;32084;42.254;22.744;2023-07-30T02:36:21;95053.59;;;16.86;87.44
46379;BME280;32084;42.254;22.744;2023-07-30T02:38:47;95051.59;;;17.14;85.93
46379;BME280;32084;42.254;22.744;2023-07-30T02:41:13;95054.13;;;17.29;85.64
46379;BME280;32084;42.254;22.744;2023-07-30T02:43:39;95050.16;;;17.18;85.83
46379;BME280;32084;42.254;22.744;2023-07-30T02:46:05;95054.03;;;16.89;86.82
46379;BME280;32084;42.254;22.744;2023-07-30T02:48:32;95049.25;;;16.85;87.97
46379;BME280;32084;42.254;22.744;2023-07-30T02:50:58;95066.78;;;17.15;85.59
46379;BME280;32084;42.254;22.744;2023-07-30T02:53:24;95061.94;;;16.97;85.96
46379;BME280;32084;42.254;22.744;2023-07-30T02:55:50;95058.59;;;16.89;86.93
46379;BME280;32084;42.254;22.744;2023-07-30T02:58:16;95064.31;;;16.66;88.23
46379;BME280;32084;42.254;22.744;2023-07-30T03:00:42;95064.50;;;16.64;88.77
46379;BME280;32084;42.254;22.744;2023-07-30T03:03:09;95070.72;;;16.65;88.39
46379;BME280;32084;42.254;22.744;2023-07-30T03:05:35;95073.66;;;16.70;88.09
46379;BME280;32084;42.254;22.744;2023-07-30T03:08:01;95075.84;;;16.88;87.16
46379;BME280;32084;42.254;22.744;2023-07-30T03:10:27;95079.59;;;16.87;87.07
46379;BME280;32084;42.254;22.744;2023-07-30T03:12:53;95081.19;;;16.81;87.16
46379;BME280;32084;42.254;22.744;2023-07-30T03:15:19;95078.53;;;16.88;87.44
46379;BME280;32084;42.254;22.744;2023-07-30T03:17:45;95081.19;;;16.81;87.55
46379;BME280;32084;42.254;22.744;2023-07-30T03:20:10;95074.72;;;16.75;87.91
46379;BME280;32084;42.254;22.744;2023-07-30T03:22:36;95078.53;;;16.88;87.24
46379;BME280;32084;42.254;22.744;2023-07-30T03:25:02;95088.22;;;16.75;87.40
46379;BME280;32084;42.254;22.744;2023-07-30T03:27:29;95087.59;;;16.73;87.85
46379;BME280;32084;42.254;22.744;2023-07-30T03:29:55;95085.28;;;16.70;87.99
46379;BME280;32084;42.254;22.744;2023-07-30T03:32:21;95081.19;;;16.81;87.50
46379;BME280;32084;42.254;22.744;2023-07-30T03:34:47;95083.59;;;17.04;86.35
46379;BME280;32084;42.254;22.744;2023-07-30T03:37:13;95077.53;;;16.95;86.67
46379;BME280;32084;42.254;22.744;2023-07-30T03:39:39;95086.28;;;17.04;86.83
46379;BME280;32084;42.254;22.744;2023-07-30T03:42:05;95085.66;;;17.09;86.97
46379;BME280;32084;42.254;22.744;2023-07-30T03:44:31;95084.22;;;17.13;86.91
46379;BME280;32084;42.254;22.744;2023-07-30T03:46:57;95089.56;;;17.00;86.84
46379;BME280;32084;42.254;22.744;2023-07-30T03:49:23;95094.06;;;16.79;87.46
46379;BME280;32084;42.254;22.744;2023-07-30T03:51:49;95091.75;;;16.76;87.97
46379;BME280;32084;42.254;22.744;2023-07-30T03:54:15;95094.63;;;17.16;85.90
46379;BME280;32084;42.254;22.744;2023-07-30T03:56:40;95101.31;;;17.27;85.58
46379;BME280;32084;42.254;22.744;2023-07-30T03:59:06;95102.53;;;17.24;86.35
46379;BME280;32084;42.254;22.744;2023-07-30T04:01:32;95101.31;;;17.27;86.84
46379;BME280;32084;42.254;22.744;2023-07-30T04:03:59;95104.66;;;17.35;86.03
46379;BME280;32084;42.254;22.744;2023-07-30T04:06:25;95107.78;;;17.32;86.34
46379;BME280;32084;42.254;22.744;2023-07-30T04:08:51;95101.53;;;17.25;86.39
46379;BME280;32084;42.254;22.744;2023-07-30T04:11:17;95106.28;;;17.30;86.91
46379;BME280;32084;42.254;22.744;2023-07-30T04:13:43;95102.78;;;17.29;87.96
46379;BME280;32084;42.254;22.744;2023-07-30T04:16:09;95103.00;;;17.34;88.50
46379;BME280;32084;42.254;22.744;2023-07-30T04:18:35;95104.28;;;17.52;88.25
46379;BME280;32084;42.254;22.744;2023-07-30T04:21:01;95105.34;;;17.64;88.26
46379;BME280;32084;42.254;22.744;2023-07-30T04:23:26;95104.97;;;17.94;86.91
46379;BME280;32084;42.254;22.744;2023-07-30T04:25:52;95108.09;;;18.18;85.74
46379;BME280;32084;42.254;22.744;2023-07-30T04:28:18;95113.06;;;18.34;85.49
46379;BME280;32084;42.254;22.744;2023-07-30T04:30:44;95112.00;;;18.48;85.20
46379;BME280;32084;42.254;22.744;2023-07-30T04:52:12;95111.13;;;18.68;85.35
46379;BME280;32084;42.254;22.744;2023-07-30T04:54:38;95109.50;;;19.19;83.35
46379;BME280;32084;42.254;22.744;2023-07-30T04:57:04;95113.28;;;19.56;82.21
46379;BME280;32084;42.254;22.744;2023-07-30T04:59:31;95120.06;;;19.79;81.29
46379;BME280;32084;42.254;22.744;2023-07-30T05:01:59;95121.59;;;19.93;79.58
46379;BME280;32084;42.254;22.744;2023-07-30T05:04:25;95116.19;;;20.18;79.31
46379;BME280;32084;42.254;22.744;2023-07-30T05:06:51;95112.00;;;20.22;79.05
46379;BME280;32084;42.254;22.744;2023-07-30T05:09:17;95116.63;;;20.40;78.89
46379;BME280;32084;42.254;22.744;2023-07-30T05:11:43;95113.22;;;20.45;76.47
46379;BME280;32084;42.254;22.744;2023-07-30T05:14:09;95105.41;;;20.55;75.54
46379;BME280;32084;42.254;22.744;2023-07-30T05:16:35;95110.38;;;20.83;75.96
46379;BME280;32084;42.254;22.744;2023-07-30T05:19:02;95105.69;;;20.91;74.80
46379;BME280;32084;42.254;22.744;2023-07-30T05:21:28;95101.84;;;20.98;74.72
46379;BME280;32084;42.254;22.744;2023-07-30T05:23:54;95107.84;;;21.19;73.67
46379;BME280;32084;42.254;22.744;2023-07-30T05:26:19;95108.53;;;21.33;73.24
46379;BME280;32084;42.254;22.744;2023-07-30T05:28:45;95110.75;;;21.36;71.27
46379;BME280;32084;42.254;22.744;2023-07-30T05:31:11;95112.66;;;21.54;69.14
46379;BME280;32084;42.254;22.744;2023-07-30T05:33:37;95116.50;;;21.64;70.83
46379;BME280;32084;42.254;22.744;2023-07-30T05:36:03;95114.97;;;21.69;70.77
46379;BME280;32084;42.254;22.744;2023-07-30T05:38:29;95118.75;;;21.79;69.05
46379;BME280;32084;42.254;22.744;2023-07-30T05:40:55;95117.25;;;21.83;70.31
46379;BME280;32084;42.254;22.744;2023-07-30T05:43:21;95115.06;;;21.74;69.96
46379;BME280;32084;42.254;22.744;2023-07-30T05:45:47;95116.19;;;21.84;70.08
46379;BME280;32084;42.254;22.744;2023-07-30T05:48:13;95119.81;;;22.09;70.18
46379;BME280;32084;42.254;22.744;2023-07-30T05:50:39;95124.03;;;22.35;69.70
46379;BME280;32084;42.254;22.744;2023-07-30T05:53:05;95123.88;;;22.53;68.03
46379;BME280;32084;42.254;22.744;2023-07-30T05:55:31;95123.28;;;22.63;67.80
46379;BME280;32084;42.254;22.744;2023-07-30T05:57:57;95127.44;;;22.77;67.97
46379;BME280;32084;42.254;22.744;2023-07-30T06:00:24;95119.00;;;22.91;68.36
46379;BME280;32084;42.254;22.744;2023-07-30T06:02:50;95117.34;;;23.02;66.44
46379;BME280;32084;42.254;22.744;2023-07-30T06:05:16;95124.00;;;23.06;67.98
46379;BME280;32084;42.254;22.744;2023-07-30T06:07:41;95117.19;;;23.32;66.76
46379;BME280;32084;42.254;22.744;2023-07-30T06:10:07;95116.59;;;23.30;66.05
46379;BME280;32084;42.254;22.744;2023-07-30T06:12:33;95117.91;;;23.27;67.14
46379;BME280;32084;42.254;22.744;2023-07-30T06:14:59;95115.81;;;23.46;67.17
46379;BME280;32084;42.254;22.744;2023-07-30T06:17:25;95114.03;;;23.52;67.14
46379;BME280;32084;42.254;22.744;2023-07-30T06:19:51;95109.91;;;23.49;67.45
46379;BME280;32084;42.254;22.744;2023-07-30T06:22:17;95110.06;;;23.59;67.09
46379;BME280;32084;42.254;22.744;2023-07-30T06:24:43;95107.56;;;23.70;66.59
46379;BME280;32084;42.254;22.744;2023-07-30T06:27:09;95109.03;;;23.89;66.65
46379;BME280;32084;42.254;22.744;2023-07-30T06:29:36;95103.56;;;23.89;66.46
46379;BME280;32084;42.254;22.744;2023-07-30T06:32:02;95106.56;;;24.22;65.56
46379;BME280;32084;42.254;22.744;2023-07-30T06:34:28;95101.78;;;24.46;65.05
46379;BME280;32084;42.254;22.744;2023-07-30T06:36:54;95102.88;;;24.62;63.95
46379;BME280;32084;42.254;22.744;2023-07-30T06:39:20;95093.78;;;24.95;63.11
46379;BME280;32084;42.254;22.744;2023-07-30T06:41:46;95102.03;;;25.00;62.79
46379;BME280;32084;42.254;22.744;2023-07-30T06:44:12;95088.75;;;25.09;61.72
46379;BME280;32084;42.254;22.744;2023-07-30T06:46:38;95079.03;;;25.18;62.48
46379;BME280;32084;42.254;22.744;2023-07-30T06:49:04;95085.03;;;25.37;62.25
46379;BME280;32084;42.254;22.744;2023-07-30T06:51:30;95088.44;;;25.49;60.65
46379;BME280;32084;42.254;22.744;2023-07-30T06:53:56;95085.84;;;25.38;61.99
46379;BME280;32084;42.254;22.744;2023-07-30T06:56:22;95081.66;;;25.52;61.51
46379;BME280;32084;42.254;22.744;2023-07-30T06:58:48;95083.59;;;25.57;59.39
46379;BME280;32084;42.254;22.744;2023-07-30T07:01:14;95080.09;;;25.61;61.38
46379;BME280;32084;42.254;22.744;2023-07-30T07:03:40;95088.16;;;25.73;60.68
46379;BME280;32084;42.254;22.744;2023-07-30T07:06:06;95083.88;;;25.82;59.12
46379;BME280;32084;42.254;22.744;2023-07-30T07:08:32;95074.22;;;25.75;60.37
46379;BME280;32084;42.254;22.744;2023-07-30T07:10:58;95071.13;;;25.93;60.55
46379;BME280;32084;42.254;22.744;2023-07-30T07:13:24;95075.91;;;26.03;60.39
46379;BME280;32084;42.254;22.744;2023-07-30T07:15:50;95068.50;;;26.36;58.29
46379;BME280;32084;42.254;22.744;2023-07-30T07:18:16;95061.72;;;26.48;58.17
46379;BME280;32084;42.254;22.744;2023-07-30T07:20:42;95060.56;;;26.77;57.92
46379;BME280;32084;42.254;22.744;2023-07-30T07:23:08;95065.72;;;26.68;58.92
46379;BME280;32084;42.254;22.744;2023-07-30T07:25:34;95063.03;;;26.73;57.86
46379;BME280;32084;42.254;22.744;2023-07-30T07:27:59;95054.00;;;26.78;57.03
46379;BME280;32084;42.254;22.744;2023-07-30T07:30:25;95050.25;;;26.99;56.73
46379;BME280;32084;42.254;22.744;2023-07-30T07:32:52;95056.78;;;26.83;55.20
46379;BME280;32084;42.254;22.744;2023-07-30T07:35:21;95048.50;;;26.78;56.25
46379;BME280;32084;42.254;22.744;2023-07-30T07:37:47;95043.69;;;27.00;55.58
46379;BME280;32084;42.254;22.744;2023-07-30T07:40:13;95050.44;;;27.35;52.47
46379;BME280;32084;42.254;22.744;2023-07-30T07:42:38;95046.13;;;27.55;53.11
46379;BME280;32084;42.254;22.744;2023-07-30T07:45:05;95049.69;;;27.55;53.54
46379;BME280;32084;42.254;22.744;2023-07-30T07:47:31;95043.38;;;27.55;52.77
46379;BME280;32084;42.254;22.744;2023-07-30T07:49:57;95040.34;;;27.61;53.27
46379;BME280;32084;42.254;22.744;2023-07-30T07:52:23;95043.38;;;27.75;52.07
46379;BME280;32084;42.254;22.744;2023-07-30T07:54:49;95040.69;;;27.85;52.01
46379;BME280;32084;42.254;22.744;2023-07-30T07:57:15;95039.88;;;28.06;49.87
46379;BME280;32084;42.254;22.744;2023-07-30T07:59:41;95032.47;;;28.21;50.49
46379;BME280;32084;42.254;22.744;2023-07-30T08:02:11;95036.31;;;28.26;50.69
46379;BME280;32084;42.254;22.744;2023-07-30T08:04:37;95026.41;;;28.45;51.20
46379;BME280;32084;42.254;22.744;2023-07-30T08:07:03;95022.84;;;28.45;50.08
46379;BME280;32084;42.254;22.744;2023-07-30T08:09:30;95021.72;;;28.51;48.52
46379;BME280;32084;42.254;22.744;2023-07-30T08:11:56;95022.84;;;28.60;47.22
46379;BME280;32084;42.254;22.744;2023-07-30T08:14:22;95020.41;;;28.53;48.27
46379;BME280;32084;42.254;22.744;2023-07-30T08:16:48;95026.94;;;28.68;47.95
46379;BME280;32084;42.254;22.744;2023-07-30T08:19:14;95023.59;;;28.91;47.95
46379;BME280;32084;42.254;22.744;2023-07-30T08:21:39;95012.34;;;28.77;49.00
46379;BME280;32084;42.254;22.744;2023-07-30T08:24:05;95021.13;;;28.79;46.93
46379;BME280;32084;42.254;22.744;2023-07-30T08:26:31;95013.09;;;29.04;46.39
46379;BME280;32084;42.254;22.744;2023-07-30T08:28:57;95006.72;;;29.08;47.74
46379;BME280;32084;42.254;22.744;2023-07-30T08:31:24;95010.88;;;29.16;47.39
46379;BME280;32084;42.254;22.744;2023-07-30T08:33:50;95000.41;;;29.13;46.72
46379;BME280;32084;42.254;22.744;2023-07-30T08:36:16;94996.81;;;29.12;47.42
46379;BME280;32084;42.254;22.744;2023-07-30T08:38:42;94997.13;;;29.06;47.37
46379;BME280;32084;42.254;22.744;2023-07-30T08:41:08;95002.63;;;29.00;45.77
46379;BME280;32084;42.254;22.744;2023-07-30T08:43:34;94991.03;;;29.19;47.17
46379;BME280;32084;42.254;22.744;2023-07-30T08:46:00;94993.16;;;29.37;46.75
46379;BME280;32084;42.254;22.744;2023-07-30T08:48:27;94982.91;;;29.48;47.13
46379;BME280;32084;42.254;22.744;2023-07-30T08:50:56;94985.06;;;29.51;46.88
46379;BME280;32084;42.254;22.744;2023-07-30T08:53:24;94979.03;;;29.49;46.48
46379;BME280;32084;42.254;22.744;2023-07-30T08:55:50;94984.94;;;29.72;46.16
46379;BME280;32084;42.254;22.744;2023-07-30T08:58:16;94984.34;;;29.80;45.03
46379;BME280;32084;42.254;22.744;2023-07-30T09:00:42;94976.88;;;29.86;46.16
46379;BME280;32084;42.254;22.744;2023-07-30T09:03:09;94980.00;;;30.08;46.28
46379;BME280;32084;42.254;22.744;2023-07-30T09:05:37;94979.84;;;30.24;45.20
46379;BME280;32084;42.254;22.744;2023-07-30T09:08:03;94974.03;;;30.30;44.67
46379;BME280;32084;42.254;22.744;2023-07-30T09:10:29;94976.97;;;30.39;45.46
46379;BME280;32084;42.254;22.744;2023-07-30T09:12:56;94979.66;;;30.49;44.11
46379;BME280;32084;42.254;22.744;2023-07-30T09:15:30;94971.34;;;30.54;43.99
46379;BME280;32084;42.254;22.744;2023-07-30T09:18:00;94978.78;;;30.54;42.11
46379;BME280;32084;42.254;22.744;2023-07-30T09:20:26;94970.75;;;30.58;43.96
46379;BME280;32084;42.254;22.744;2023-07-30T09:22:55;94976.69;;;30.70;42.67
46379;BME280;32084;42.254;22.744;2023-07-30T09:25:21;94972.75;;;30.76;40.80
46379;BME280;32084;42.254;22.744;2023-07-30T09:27:48;94972.63;;;30.86;40.75
46379;BME280;32084;42.254;22.744;2023-07-30T09:30:14;94970.66;;;30.92;41.42
46379;BME280;32084;42.254;22.744;2023-07-30T09:32:50;94965.84;;;31.03;41.77
46379;BME280;32084;42.254;22.744;2023-07-30T09:35:16;94961.25;;;31.17;41.84
46379;BME280;32084;42.254;22.744;2023-07-30T09:37:43;94962.94;;;31.13;40.61
46379;BME280;32084;42.254;22.744;2023-07-30T09:40:10;94957.38;;;30.70;40.53
46379;BME280;32084;42.254;22.744;2023-07-30T09:42:37;94952.34;;;30.19;39.89
46379;BME280;32084;42.254;22.744;2023-07-30T09:45:08;94938.91;;;29.77;42.69
46379;BME280;32084;42.254;22.744;2023-07-30T09:47:46;94942.72;;;29.42;42.14
46379;BME280;32084;42.254;22.744;2023-07-30T09:50:11;94930.44;;;29.29;43.85
46379;BME280;32084;42.254;22.744;2023-07-30T09:52:38;94926.94;;;29.53;43.05
46379;BME280;32084;42.254;22.744;2023-07-30T09:55:05;94928.16;;;30.10;42.00
46379;BME280;32084;42.254;22.744;2023-07-30T09:57:31;94928.19;;;30.64;40.83
46379;BME280;32084;42.254;22.744;2023-07-30T09:59:57;94916.81;;;30.94;41.37
46379;BME280;32084;42.254;22.744;2023-07-30T10:02:24;94920.34;;;31.00;39.05
46379;BME280;32084;42.254;22.744;2023-07-30T10:04:50;94912.06;;;31.19;41.53
46379;BME280;32084;42.254;22.744;2023-07-30T10:07:17;94912.88;;;31.39;40.95
46379;BME280;32084;42.254;22.744;2023-07-30T10:09:45;94901.84;;;31.39;40.97
46379;BME280;32084;42.254;22.744;2023-07-30T10:12:16;94901.63;;;31.35;40.17
46379;BME280;32084;42.254;22.744;2023-07-30T10:14:42;94904.41;;;31.54;39.48
46379;BME280;32084;42.254;22.744;2023-07-30T10:17:11;94908.38;;;31.48;39.11
46379;BME280;32084;42.254;22.744;2023-07-30T10:19:37;94906.88;;;31.56;39.32
46379;BME280;32084;42.254;22.744;2023-07-30T10:22:22;94898.41;;;31.66;38.74
46379;BME280;32084;42.254;22.744;2023-07-30T10:24:55;94887.41;;;31.80;39.68
46379;BME280;32084;42.254;22.744;2023-07-30T10:27:23;94886.84;;;31.97;40.58
46379;BME280;32084;42.254;22.744;2023-07-30T10:29:51;94888.53;;;32.12;39.66
46379;BME280;32084;42.254;22.744;2023-07-30T10:32:57;94889.69;;;32.10;37.96
46379;BME280;32084;42.254;22.744;2023-07-30T10:38:12;94875.22;;;31.81;38.08
46379;BME280;32084;42.254;22.744;2023-07-30T10:40:38;94871.72;;;31.75;38.49
46379;BME280;32084;42.254;22.744;2023-07-30T10:43:17;94866.03;;;31.85;39.79
46379;BME280;32084;42.254;22.744;2023-07-30T10:45:49;94860.19;;;32.20;38.62
46379;BME280;32084;42.254;22.744;2023-07-30T10:48:16;94863.09;;;32.42;36.35
46379;BME280;32084;42.254;22.744;2023-07-30T10:50:42;94862.38;;;32.37;37.63
46379;BME280;32084;42.254;22.744;2023-07-30T10:53:14;94857.31;;;32.25;38.28
46379;BME280;32084;42.254;22.744;2023-07-30T10:55:41;94861.94;;;32.43;35.42
46379;BME280;32084;42.254;22.744;2023-07-30T10:58:08;94850.38;;;32.55;37.15
46379;BME280;32084;42.254;22.744;2023-07-30T11:00:34;94855.22;;;32.77;35.46
46379;BME280;32084;42.254;22.744;2023-07-30T11:03:00;94846.25;;;32.94;35.54
46379;BME280;32084;42.254;22.744;2023-07-30T11:05:26;94849.75;;;33.00;35.68
46379;BME280;32084;42.254;22.744;2023-07-30T11:07:52;94839.63;;;32.81;37.00
46379;BME280;32084;42.254;22.744;2023-07-30T11:10:18;94828.25;;;32.83;38.95
46379;BME280;32084;42.254;22.744;2023-07-30T11:12:44;94825.88;;;32.76;36.26
46379;BME280;32084;42.254;22.744;2023-07-30T11:15:10;94826.00;;;32.57;36.89
46379;BME280;32084;42.254;22.744;2023-07-30T11:17:36;94821.06;;;32.68;39.25
46379;BME280;32084;42.254;22.744;2023-07-30T11:20:02;94820.47;;;32.71;35.67
46379;BME280;32084;42.254;22.744;2023-07-30T11:22:28;94831.28;;;32.95;35.37
46379;BME280;32084;42.254;22.744;2023-07-30T11:24:56;94826.03;;;33.07;34.68
46379;BME280;32084;42.254;22.744;2023-07-30T11:27:22;94817.81;;;32.66;35.39
46379;BME280;32084;42.254;22.744;2023-07-30T11:29:55;94815.13;;;32.47;35.57
46379;BME280;32084;42.254;22.744;2023-07-30T11:32:22;94811.53;;;32.74;36.05
46379;BME280;32084;42.254;22.744;2023-07-30T11:34:51;94811.38;;;33.07;35.99
46379;BME280;32084;42.254;22.744;2023-07-30T11:37:19;94802.16;;;33.12;34.93
46379;BME280;32084;42.254;22.744;2023-07-30T11:39:47;94788.28;;;32.75;36.25
46379;BME280;32084;42.254;22.744;2023-07-30T11:42:13;94801.16;;;32.94;35.83
46379;BME280;32084;42.254;22.744;2023-07-30T11:44:39;94796.63;;;32.98;35.62
46379;BME280;32084;42.254;22.744;2023-07-30T11:47:06;94796.69;;;33.20;34.50
46379;BME280;32084;42.254;22.744;2023-07-30T11:49:35;94787.56;;;33.06;35.22
46379;BME280;32084;42.254;22.744;2023-07-30T11:52:04;94784.91;;;32.78;35.69
46379;BME280;32084;42.254;22.744;2023-07-30T11:54:30;94782.47;;;32.99;34.55
46379;BME280;32084;42.254;22.744;2023-07-30T11:56:58;94774.66;;;33.15;35.63
46379;BME280;32084;42.254;22.744;2023-07-30T11:59:24;94780.97;;;33.30;34.34
46379;BME280;32084;42.254;22.744;2023-07-30T12:01:51;94771.63;;;33.48;35.12
46379;BME280;32084;42.254;22.744;2023-07-30T12:04:17;94763.44;;;33.43;35.07
46379;BME280;32084;42.254;22.744;2023-07-30T12:06:44;94761.03;;;33.28;33.79
46379;BME280;32084;42.254;22.744;2023-07-30T12:09:14;94761.69;;;33.24;34.33
46379;BME280;32084;42.254;22.744;2023-07-30T12:11:44;94754.44;;;33.37;35.58
46379;BME280;32084;42.254;22.744;2023-07-30T12:14:12;94747.72;;;33.30;35.62
46379;BME280;32084;42.254;22.744;2023-07-30T12:16:38;94744.91;;;33.07;36.59
46379;BME280;32084;42.254;22.744;2023-07-30T12:19:04;94735.97;;;33.10;33.89
46379;BME280;32084;42.254;22.744;2023-07-30T12:21:30;94747.78;;;33.02;33.64
46379;BME280;32084;42.254;22.744;2023-07-30T12:23:56;94730.56;;;32.55;34.29
46379;BME280;32084;42.254;22.744;2023-07-30T12:26:23;94733.69;;;32.12;34.03
46379;BME280;32084;42.254;22.744;2023-07-30T12:28:49;94741.47;;;32.37;35.19
46379;BME280;32084;42.254;22.744;2023-07-30T12:31:21;94732.91;;;32.75;35.14
46379;BME280;32084;42.254;22.744;2023-07-30T12:33:47;94738.00;;;32.82;34.41
46379;BME280;32084;42.254;22.744;2023-07-30T12:36:13;94728.84;;;32.73;35.81
46379;BME280;32084;42.254;22.744;2023-07-30T12:38:40;94724.75;;;32.93;34.75
46379;BME280;32084;42.254;22.744;2023-07-30T12:41:06;94722.06;;;33.01;35.07
46379;BME280;32084;42.254;22.744;2023-07-30T12:43:32;94715.06;;;33.04;34.45
46379;BME280;32084;42.254;22.744;2023-07-30T12:45:58;94719.56;;;32.77;32.93
46379;BME280;32084;42.254;22.744;2023-07-30T12:48:24;94717.31;;;32.79;33.71
46379;BME280;32084;42.254;22.744;2023-07-30T12:50:50;94721.78;;;32.89;34.52
46379;BME280;32084;42.254;22.744;2023-07-30T12:53:16;94710.28;;;32.96;35.02
46379;BME280;32084;42.254;22.744;2023-07-30T12:55:42;94709.44;;;32.95;34.04
46379;BME280;32084;42.254;22.744;2023-07-30T12:58:08;94706.25;;;33.02;34.17
46379;BME280;32084;42.254;22.744;2023-07-30T13:00:34;94708.41;;;33.05;34.70
46379;BME280;32084;42.254;22.744;2023-07-30T13:03:00;94702.53;;;33.20;34.14
46379;BME280;32084;42.254;22.744;2023-07-30T13:05:27;94702.94;;;33.36;35.49
46379;BME280;32084;42.254;22.744;2023-07-30T13:07:53;94699.75;;;33.06;34.13